sensor_id;sensor_type;location;lat;lon;timestamp;pressure;altitude;pressure_sealevel;temperature;humidity
44992;BME280;56865;51.618;7.406;2023-03-01T02:27:12;102149.72;;;6.18;100.00
44992;BME280;56865;51.618;7.406;2023-03-01T02:57:39;102167.34;;;5.58;100.00
44992;BME280;56865;51.618;7.406;2023-03-01T03:20:29;102153.38;;;5.39;100.00
44992;BME280;56865;51.618;7.406;2023-03-01T03:23:39;102154.78;;;5.35;99.03
44992;BME280;56865;51.618;7.406;2023-03-01T03:26:43;102150.41;;;5.33;100.00
44992;BME280;56865;51.618;7.406;2023-03-01T03:29:24;102149.44;;;5.66;100.00
44992;BME280;56865;51.618;7.406;2023-03-01T03:31:56;102153.28;;;5.61;98.99
44992;BME280;56865;51.618;7.406;2023-03-01T03:34:28;102149.22;;;5.51;98.79
44992;BME280;56865;51.618;7.406;2023-03-01T03:37:00;102145.59;;;5.36;99.27
44992;BME280;56865;51.618;7.406;2023-03-01T03:50:22;102124.34;;;5.34;100.00
44992;BME280;56865;51.618;7.406;2023-03-01T03:52:54;102111.16;;;5.38;100.00
44992;BME280;56865;51.618;7.406;2023-03-01T03:55:24;102116.19;;;5.14;100.00
44992;BME280;56865;51.618;7.406;2023-03-01T03:57:57;102114.56;;;5.27;99.44
44992;BME280;56865;51.618;7.406;2023-03-01T04:00:28;102109.06;;;5.20;99.54
44992;BME280;56865;51.618;7.406;2023-03-01T04:03:00;102117.56;;;5.45;100.00
44992;BME280;56865;51.618;7.406;2023-03-01T04:05:30;102117.84;;;5.26;100.00
44992;BME280;56865;51.618;7.406;2023-03-01T04:08:02;102112.59;;;5.46;100.00
44992;BME280;56865;51.618;7.406;2023-03-01T04:10:34;102115.25;;;5.36;99.26
44992;BME280;56865;51.618;7.406;2023-03-01T04:13:04;102118.19;;;5.30;99.49
44992;BME280;56865;51.618;7.406;2023-03-01T04:15:34;102120.94;;;5.45;100.00
44992;BME280;56865;51.618;7.406;2023-03-01T04:18:04;102118.44;;;5.33;100.00
44992;BME280;56865;51.618;7.406;2023-03-01T04:20:34;102115.44;;;5.39;100.00
44992;BME280;56865;51.618;7.406;2023-03-01T04:23:08;102126.44;;;5.51;100.00
44992;BME280;56865;51.618;7.406;2023-03-01T04:25:45;102127.31;;;5.40;97.84
44992;BME280;56865;51.618;7.406;2023-03-01T04:28:15;102120.94;;;5.45;99.55
44992;BME280;56865;51.618;7.406;2023-03-01T04:30:45;102126.88;;;5.58;100.00
44992;BME280;56865;51.618;7.406;2023-03-01T04:33:15;102116.34;;;5.51;100.00
44992;BME280;56865;51.618;7.406;2023-03-01T04:35:45;102113.03;;;5.52;100.00
44992;BME280;56865;51.618;7.406;2023-03-01T04:38:18;102116.44;;;5.53;100.00
44992;BME280;56865;51.618;7.406;2023-03-01T04:40:48;102109.84;;;5.55;100.00
44992;BME280;56865;51.618;7.406;2023-03-01T04:43:18;102112.47;;;5.33;99.95
44992;BME280;56865;51.618;7.406;2023-03-01T04:45:47;102110.84;;;5.45;100.00
44992;BME280;56865;51.618;7.406;2023-03-01T04:48:17;102111.16;;;5.38;100.00
44992;BME280;56865;51.618;7.406;2023-03-01T04:50:49;102115.44;;;5.39;100.00
44992;BME280;56865;51.618;7.406;2023-03-01T04:53:21;102114.34;;;5.35;100.00
44992;BME280;56865;51.618;7.406;2023-03-01T04:55:51;102107.75;;;5.37;100.00
44992;BME280;56865;51.618;7.406;2023-03-01T04:58:23;102105.34;;;5.27;100.00
44992;BME280;56865;51.618;7.406;2023-03-01T05:00:59;102101.28;;;5.41;100.00
44992;BME280;56865;51.618;7.406;2023-03-01T05:03:29;102113.44;;;5.23;98.87
44992;BME280;56865;51.618;7.406;2023-03-01T05:05:58;102111.06;;;5.25;100.00
44992;BME280;56865;51.618;7.406;2023-03-01T05:08:31;102099.63;;;5.30;100.00
44992;BME280;56865;51.618;7.406;2023-03-01T05:11:01;102101.03;;;5.38;99.70
44992;BME280;56865;51.618;7.406;2023-03-01T05:13:30;102093.69;;;5.29;99.33
44992;BME280;56865;51.618;7.406;2023-03-01T05:16:00;102102.38;;;5.21;100.00
44992;BME280;56865;51.618;7.406;2023-03-01T05:18:31;102103.44;;;5.01;100.00
44992;BME280;56865;51.618;7.406;2023-03-01T05:21:02;102101.22;;;4.26;100.00
44992;BME280;56865;51.618;7.406;2023-03-01T05:23:37;102102.72;;;3.79;100.00
44992;BME280;56865;51.618;7.406;2023-03-01T05:26:07;102097.94;;;3.72;100.00
44992;BME280;56865;51.618;7.406;2023-03-01T05:28:53;102099.88;;;3.64;100.00
44992;BME280;56865;51.618;7.406;2023-03-01T05:31:26;102105.28;;;4.92;100.00
44992;BME280;56865;51.618;7.406;2023-03-01T05:33:59;102105.19;;;4.90;100.00
44992;BME280;56865;51.618;7.406;2023-03-01T05:36:31;102100.81;;;4.09;100.00
44992;BME280;56865;51.618;7.406;2023-03-01T06:45:02;102074.50;;;4.62;100.00
44992;BME280;56865;51.618;7.406;2023-03-01T06:47:32;102089.63;;;4.62;100.00
44992;BME280;56865;51.618;7.406;2023-03-01T06:50:02;102082.28;;;4.65;100.00
44992;BME280;56865;51.618;7.406;2023-03-01T06:52:32;102080.50;;;4.30;100.00
44992;BME280;56865;51.618;7.406;2023-03-01T06:55:02;102086.91;;;4.70;100.00
44992;BME280;56865;51.618;7.406;2023-03-01T06:57:33;102081.31;;;4.86;100.00
44992;BME280;56865;51.618;7.406;2023-03-01T07:00:08;102085.88;;;5.02;100.00
44992;BME280;56865;51.618;7.406;2023-03-01T07:02:38;102079.59;;;5.09;100.00
44992;BME280;56865;51.618;7.406;2023-03-01T07:05:08;102077.63;;;5.17;100.00
44992;BME280;56865;51.618;7.406;2023-03-01T07:07:38;102072.81;;;5.20;100.00
44992;BME280;56865;51.618;7.406;2023-03-01T07:10:13;102075.00;;;5.15;100.00
44992;BME280;56865;51.618;7.406;2023-03-01T07:12:43;102080.72;;;5.25;100.00
44992;BME280;56865;51.618;7.406;2023-03-01T07:15:16;102077.88;;;5.44;100.00
44992;BME280;56865;51.618;7.406;2023-03-01T07:17:50;102078.94;;;5.59;100.00
44992;BME280;56865;51.618;7.406;2023-03-01T09:02:12;102059.06;;;10.28;100.00
44992;BME280;56865;51.618;7.406;2023-03-01T09:04:42;102056.75;;;10.49;99.35
44992;BME280;56865;51.618;7.406;2023-03-01T09:07:12;102053.94;;;10.61;99.47
44992;BME280;56865;51.618;7.406;2023-03-01T09:09:42;102050.44;;;10.43;100.00
44992;BME280;56865;51.618;7.406;2023-03-01T09:12:14;102045.16;;;9.73;100.00
44992;BME280;56865;51.618;7.406;2023-03-01T09:14:47;102043.91;;;10.64;100.00
44992;BME280;56865;51.618;7.406;2023-03-01T09:17:19;102049.13;;;10.67;99.94
44992;BME280;56865;51.618;7.406;2023-03-01T09:19:49;102038.44;;;10.56;98.50
44992;BME280;56865;51.618;7.406;2023-03-01T09:22:19;102037.22;;;11.02;100.00
44992;BME280;56865;51.618;7.406;2023-03-01T09:24:48;102033.16;;;11.06;99.60
44992;BME280;56865;51.618;7.406;2023-03-01T09:27:18;102036.09;;;10.61;95.92
44992;BME280;56865;51.618;7.406;2023-03-01T09:29:48;102029.63;;;11.04;97.84
44992;BME280;56865;51.618;7.406;2023-03-01T09:32:21;102031.59;;;11.28;100.00
44992;BME280;56865;51.618;7.406;2023-03-01T09:34:50;102024.84;;;11.48;97.33
44992;BME280;56865;51.618;7.406;2023-03-01T09:37:32;102024.34;;;11.55;98.51
44992;BME280;56865;51.618;7.406;2023-03-01T09:40:04;102017.69;;;11.78;95.68
44992;BME280;56865;51.618;7.406;2023-03-01T09:42:35;102023.34;;;11.91;94.44
44992;BME280;56865;51.618;7.406;2023-03-01T09:45:05;102017.09;;;12.23;95.96
44992;BME280;56865;51.618;7.406;2023-03-01T09:47:38;102020.03;;;12.32;93.09
44992;BME280;56865;51.618;7.406;2023-03-01T09:50:10;102021.75;;;12.53;90.82
44992;BME280;56865;51.618;7.406;2023-03-01T09:52:44;102012.38;;;12.96;94.26
44992;BME280;56865;51.618;7.406;2023-03-01T09:55:16;102000.22;;;12.90;93.89
44992;BME280;56865;51.618;7.406;2023-03-01T09:57:47;102006.28;;;13.15;91.35
44992;BME280;56865;51.618;7.406;2023-03-01T10:03:14;102020.72;;;13.13;90.84
44992;BME280;56865;51.618;7.406;2023-03-01T10:05:56;102016.41;;;12.27;94.55
44992;BME280;56865;51.618;7.406;2023-03-01T10:08:34;102007.75;;;11.84;93.24
44992;BME280;56865;51.618;7.406;2023-03-01T10:11:15;102013.91;;;13.13;88.22
44992;BME280;56865;51.618;7.406;2023-03-01T10:13:55;102001.25;;;13.39;89.78
44992;BME280;56865;51.618;7.406;2023-03-01T10:16:38;102002.06;;;13.38;85.65
44992;BME280;56865;51.618;7.406;2023-03-01T10:19:14;102001.53;;;13.47;84.17
44992;BME280;56865;51.618;7.406;2023-03-01T10:21:46;102001.88;;;13.56;83.30
44992;BME280;56865;51.618;7.406;2023-03-01T10:24:20;101998.97;;;13.94;83.92
44992;BME280;56865;51.618;7.406;2023-03-01T10:26:59;101995.72;;;13.51;82.25
44992;BME280;56865;51.618;7.406;2023-03-01T10:29:34;101994.91;;;14.01;85.77
44992;BME280;56865;51.618;7.406;2023-03-01T10:32:08;101990.31;;;14.16;81.89
44992;BME280;56865;51.618;7.406;2023-03-01T10:34:42;101996.44;;;14.45;80.90
44992;BME280;56865;51.618;7.406;2023-03-01T10:37:13;102002.78;;;14.57;79.78
44992;BME280;56865;51.618;7.406;2023-03-01T10:39:54;101992.16;;;14.46;80.95
44992;BME280;56865;51.618;7.406;2023-03-01T10:42:28;101989.16;;;14.85;80.44
44992;BME280;56865;51.618;7.406;2023-03-01T10:45:14;101981.81;;;14.98;80.81
44992;BME280;56865;51.618;7.406;2023-03-01T10:47:47;101984.50;;;14.47;77.25
44992;BME280;56865;51.618;7.406;2023-03-01T10:50:34;101975.44;;;15.12;77.88
44992;BME280;56865;51.618;7.406;2023-03-01T10:53:16;101970.59;;;15.53;77.11
44992;BME280;56865;51.618;7.406;2023-03-01T10:55:48;101966.19;;;15.49;76.47
44992;BME280;56865;51.618;7.406;2023-03-01T10:58:31;101973.59;;;16.01;78.35
44992;BME280;56865;51.618;7.406;2023-03-01T11:01:02;101965.78;;;15.96;73.15
44992;BME280;56865;51.618;7.406;2023-03-01T11:40:10;101944.44;;;19.12;66.60
44992;BME280;56865;51.618;7.406;2023-03-01T11:42:49;101938.91;;;18.88;65.64
44992;BME280;56865;51.618;7.406;2023-03-01T11:45:24;101943.34;;;18.95;65.88
44992;BME280;56865;51.618;7.406;2023-03-01T11:48:12;101942.09;;;19.31;63.65
44992;BME280;56865;51.618;7.406;2023-03-01T11:50:52;101944.41;;;18.49;62.67
44992;BME280;56865;51.618;7.406;2023-03-01T11:53:38;101946.78;;;18.94;65.36
44992;BME280;56865;51.618;7.406;2023-03-01T11:56:20;101948.56;;;18.41;65.25
44992;BME280;56865;51.618;7.406;2023-03-01T11:59:06;101924.41;;;18.36;66.92
44992;BME280;56865;51.618;7.406;2023-03-01T12:10:05;101928.94;;;18.52;65.07
44992;BME280;56865;51.618;7.406;2023-03-01T12:12:47;101924.47;;;18.41;66.48
44992;BME280;56865;51.618;7.406;2023-03-01T12:15:33;101920.56;;;18.69;63.83
44992;BME280;56865;51.618;7.406;2023-03-01T12:18:12;101904.63;;;17.86;66.05
44992;BME280;56865;51.618;7.406;2023-03-01T12:20:47;101907.56;;;17.13;67.76
44992;BME280;56865;51.618;7.406;2023-03-01T12:23:25;101907.53;;;17.11;66.67
44992;BME280;56865;51.618;7.406;2023-03-01T12:26:01;101905.09;;;17.17;66.26
44992;BME280;56865;51.618;7.406;2023-03-01T12:31:31;101882.06;;;16.44;70.40
44992;BME280;56865;51.618;7.406;2023-03-01T12:34:05;101869.94;;;16.78;73.38
44992;BME280;56865;51.618;7.406;2023-03-01T12:36:43;101872.66;;;16.86;65.97
44992;BME280;56865;51.618;7.406;2023-03-01T12:42:05;101865.00;;;16.49;68.08
44992;BME280;56865;51.618;7.406;2023-03-01T12:47:39;101875.63;;;17.96;62.75
44992;BME280;56865;51.618;7.406;2023-03-01T12:50:17;101882.47;;;17.96;60.79
44992;BME280;56865;51.618;7.406;2023-03-01T12:52:51;101880.56;;;17.85;67.51
44992;BME280;56865;51.618;7.406;2023-03-01T12:55:24;101869.44;;;17.90;64.87
44992;BME280;56865;51.618;7.406;2023-03-01T12:57:57;101868.16;;;17.64;65.06
44992;BME280;56865;51.618;7.406;2023-03-01T13:00:31;101868.81;;;18.01;63.70
44992;BME280;56865;51.618;7.406;2023-03-01T13:03:06;101871.91;;;17.82;62.72
44992;BME280;56865;51.618;7.406;2023-03-01T13:05:47;101864.06;;;18.29;59.94
44992;BME280;56865;51.618;7.406;2023-03-01T13:08:26;101862.41;;;18.31;68.14
44992;BME280;56865;51.618;7.406;2023-03-01T13:11:00;101861.16;;;18.67;63.86
44992;BME280;56865;51.618;7.406;2023-03-01T13:13:31;101849.13;;;18.08;63.87
44992;BME280;56865;51.618;7.406;2023-03-01T13:18:51;101849.44;;;18.30;65.86
44992;BME280;56865;51.618;7.406;2023-03-01T13:21:35;101840.69;;;17.66;65.90
44992;BME280;56865;51.618;7.406;2023-03-01T13:24:22;101849.88;;;18.01;63.55
44992;BME280;56865;51.618;7.406;2023-03-01T13:29:43;101845.72;;;18.09;64.20
44992;BME280;56865;51.618;7.406;2023-03-01T13:32:20;101844.13;;;17.65;61.35
44992;BME280;56865;51.618;7.406;2023-03-01T13:37:54;101838.97;;;18.82;62.85
44992;BME280;56865;51.618;7.406;2023-03-01T13:40:59;101837.03;;;18.65;59.85
44992;BME280;56865;51.618;7.406;2023-03-01T13:43:30;101833.97;;;18.30;63.60
44992;BME280;56865;51.618;7.406;2023-03-01T13:46:01;101827.44;;;17.94;61.17
44992;BME280;56865;51.618;7.406;2023-03-01T13:48:31;101831.66;;;17.93;60.66
44992;BME280;56865;51.618;7.406;2023-03-01T13:51:03;101829.06;;;17.90;62.78
44992;BME280;56865;51.618;7.406;2023-03-01T13:53:37;101819.59;;;17.92;64.05
44992;BME280;56865;51.618;7.406;2023-03-01T13:56:12;101808.75;;;18.12;62.81
44992;BME280;56865;51.618;7.406;2023-03-01T13:58:48;101810.44;;;18.08;59.09
44992;BME280;56865;51.618;7.406;2023-03-01T14:01:20;101811.84;;;17.91;62.10
44992;BME280;56865;51.618;7.406;2023-03-01T14:03:51;101801.13;;;18.18;66.80
44992;BME280;56865;51.618;7.406;2023-03-01T14:06:22;101799.16;;;18.00;65.20
44992;BME280;56865;51.618;7.406;2023-03-01T14:09:03;101799.78;;;17.36;64.15
44992;BME280;56865;51.618;7.406;2023-03-01T14:14:34;101786.66;;;17.74;63.23
44992;BME280;56865;51.618;7.406;2023-03-01T14:17:09;101784.69;;;17.58;62.61
44992;BME280;56865;51.618;7.406;2023-03-01T14:19:45;101775.47;;;17.20;66.54
44992;BME280;56865;51.618;7.406;2023-03-01T14:22:18;101781.38;;;16.71;60.37
44992;BME280;56865;51.618;7.406;2023-03-01T14:24:54;101772.19;;;16.02;65.72
44992;BME280;56865;51.618;7.406;2023-03-01T14:27:25;101765.59;;;16.15;66.71
44992;BME280;56865;51.618;7.406;2023-03-01T14:29:56;101761.66;;;15.91;67.97
44992;BME280;56865;51.618;7.406;2023-03-01T14:32:27;101766.44;;;15.42;64.85
44992;BME280;56865;51.618;7.406;2023-03-01T14:34:57;101767.22;;;15.39;62.84
44992;BME280;56865;51.618;7.406;2023-03-01T14:37:28;101753.22;;;15.62;69.12
44992;BME280;56865;51.618;7.406;2023-03-01T14:40:02;101757.59;;;15.31;66.76
44992;BME280;56865;51.618;7.406;2023-03-01T14:42:34;101751.91;;;14.77;72.22
44992;BME280;56865;51.618;7.406;2023-03-01T14:45:04;101755.91;;;14.99;67.85
44992;BME280;56865;51.618;7.406;2023-03-01T14:47:36;101750.00;;;15.02;68.77
44992;BME280;56865;51.618;7.406;2023-03-01T14:50:21;101749.00;;;14.65;65.46
44992;BME280;56865;51.618;7.406;2023-03-01T14:52:52;101740.19;;;14.56;73.08
44992;BME280;56865;51.618;7.406;2023-03-01T14:55:28;101738.28;;;14.49;71.38
44992;BME280;56865;51.618;7.406;2023-03-01T14:57:59;101728.03;;;14.49;75.17
44992;BME280;56865;51.618;7.406;2023-03-01T15:00:32;101722.06;;;14.21;76.19
44992;BME280;56865;51.618;7.406;2023-03-01T15:03:06;101716.59;;;14.09;73.24
44992;BME280;56865;51.618;7.406;2023-03-01T15:05:41;101720.03;;;13.82;77.33
44992;BME280;56865;51.618;7.406;2023-03-01T15:08:16;101716.03;;;13.90;75.60
44992;BME280;56865;51.618;7.406;2023-03-01T15:10:58;101711.69;;;13.60;74.31
44992;BME280;56865;51.618;7.406;2023-03-01T15:13:32;101699.03;;;13.38;75.45
44992;BME280;56865;51.618;7.406;2023-03-01T15:16:03;101700.13;;;13.73;74.03
44992;BME280;56865;51.618;7.406;2023-03-01T15:18:34;101699.13;;;13.68;73.02
44992;BME280;56865;51.618;7.406;2023-03-01T15:21:06;101704.16;;;13.92;78.85
44992;BME280;56865;51.618;7.406;2023-03-01T15:23:37;101700.59;;;13.60;75.47
44992;BME280;56865;51.618;7.406;2023-03-01T15:26:22;101690.47;;;13.64;73.63
44992;BME280;56865;51.618;7.406;2023-03-01T15:28:55;101697.84;;;13.29;79.10
44992;BME280;56865;51.618;7.406;2023-03-01T15:31:28;101690.44;;;13.63;78.62
44992;BME280;56865;51.618;7.406;2023-03-01T15:34:09;101684.34;;;13.59;84.19
44992;BME280;56865;51.618;7.406;2023-03-01T15:36:41;101692.72;;;13.54;77.37
44992;BME280;56865;51.618;7.406;2023-03-01T15:41:58;101694.38;;;13.53;75.42
44992;BME280;56865;51.618;7.406;2023-03-01T15:44:29;101677.97;;;13.21;77.40
44992;BME280;56865;51.618;7.406;2023-03-01T15:47:21;101691.69;;;12.97;74.40
44992;BME280;56865;51.618;7.406;2023-03-01T15:49:53;101680.56;;;12.96;77.96
44992;BME280;56865;51.618;7.406;2023-03-01T15:52:24;101684.97;;;13.00;79.83
44992;BME280;56865;51.618;7.406;2023-03-01T15:54:56;101673.53;;;13.16;82.77
44992;BME280;56865;51.618;7.406;2023-03-01T15:57:29;101672.69;;;13.16;86.08
44992;BME280;56865;51.618;7.406;2023-03-01T15:59:59;101665.81;;;13.15;77.74
44992;BME280;56865;51.618;7.406;2023-03-01T16:02:37;101673.47;;;12.89;80.57
44992;BME280;56865;51.618;7.406;2023-03-01T16:05:10;101675.00;;;12.84;79.56
44992;BME280;56865;51.618;7.406;2023-03-01T16:07:43;101671.69;;;12.87;80.33
44992;BME280;56865;51.618;7.406;2023-03-01T16:10:13;101668.69;;;12.98;82.35
44992;BME280;56865;51.618;7.406;2023-03-01T16:12:46;101675.94;;;12.86;81.34
44992;BME280;56865;51.618;7.406;2023-03-01T16:15:22;101676.25;;;12.45;75.74
44992;BME280;56865;51.618;7.406;2023-03-01T16:17:52;101679.91;;;12.78;82.07
44992;BME280;56865;51.618;7.406;2023-03-01T16:20:23;101679.06;;;12.53;81.12
44992;BME280;56865;51.618;7.406;2023-03-01T16:22:59;101676.19;;;12.68;79.12
44992;BME280;56865;51.618;7.406;2023-03-01T16:25:29;101671.13;;;12.45;81.19
44992;BME280;56865;51.618;7.406;2023-03-01T16:28:02;101685.59;;;12.45;78.29
44992;BME280;56865;51.618;7.406;2023-03-01T16:30:36;101673.75;;;12.47;80.23
44992;BME280;56865;51.618;7.406;2023-03-01T16:33:06;101678.91;;;12.48;81.46
44992;BME280;56865;51.618;7.406;2023-03-01T16:35:52;101672.34;;;12.32;77.02
44992;BME280;56865;51.618;7.406;2023-03-01T16:38:21;101673.47;;;12.39;81.48
44992;BME280;56865;51.618;7.406;2023-03-01T16:40:51;101671.44;;;12.30;83.20
44992;BME280;56865;51.618;7.406;2023-03-01T16:43:24;101673.41;;;12.15;77.07
44992;BME280;56865;51.618;7.406;2023-03-01T16:45:53;101674.00;;;12.30;84.41
44992;BME280;56865;51.618;7.406;2023-03-01T16:48:25;101679.69;;;12.23;81.65
44992;BME280;56865;51.618;7.406;2023-03-01T16:50:57;101671.78;;;12.17;79.82
44992;BME280;56865;51.618;7.406;2023-03-01T16:53:27;101674.34;;;12.17;80.88
44992;BME280;56865;51.618;7.406;2023-03-01T16:55:57;101673.38;;;12.13;80.90
44992;BME280;56865;51.618;7.406;2023-03-01T16:58:30;101678.09;;;12.02;82.37
44992;BME280;56865;51.618;7.406;2023-03-01T17:01:03;101683.88;;;11.98;81.56
44992;BME280;56865;51.618;7.406;2023-03-01T17:03:35;101680.09;;;11.89;82.19
44992;BME280;56865;51.618;7.406;2023-03-01T17:06:06;101677.69;;;11.93;83.06
44992;BME280;56865;51.618;7.406;2023-03-01T17:08:36;101682.97;;;11.75;80.74
44992;BME280;56865;51.618;7.406;2023-03-01T17:11:07;101681.94;;;11.70;82.83
44992;BME280;56865;51.618;7.406;2023-03-01T17:13:43;101680.19;;;11.69;81.42
44992;BME280;56865;51.618;7.406;2023-03-01T17:16:21;101674.88;;;11.64;84.78
44992;BME280;56865;51.618;7.406;2023-03-01T17:18:51;101680.13;;;11.46;83.66
44992;BME280;56865;51.618;7.406;2023-03-01T17:21:24;101681.31;;;11.54;85.87
44992;BME280;56865;51.618;7.406;2023-03-01T17:23:54;101680.31;;;11.09;85.46
44992;BME280;56865;51.618;7.406;2023-03-01T17:26:25;101695.09;;;10.77;83.58
44992;BME280;56865;51.618;7.406;2023-03-01T17:28:58;101692.06;;;10.85;86.90
44992;BME280;56865;51.618;7.406;2023-03-01T17:31:32;101686.91;;;10.84;87.71
44992;BME280;56865;51.618;7.406;2023-03-01T17:34:08;101694.88;;;11.11;86.66
44992;BME280;56865;51.618;7.406;2023-03-01T17:36:44;101693.81;;;10.86;83.79
44992;BME280;56865;51.618;7.406;2023-03-01T17:39:20;101699.66;;;11.03;86.45
44992;BME280;56865;51.618;7.406;2023-03-01T17:41:55;101701.84;;;11.15;90.02
44992;BME280;56865;51.618;7.406;2023-03-01T17:44:28;101707.91;;;10.98;83.70
44992;BME280;56865;51.618;7.406;2023-03-01T17:46:58;101702.50;;;10.90;85.56
44992;BME280;56865;51.618;7.406;2023-03-01T17:49:30;101692.59;;;10.98;87.51
44992;BME280;56865;51.618;7.406;2023-03-01T17:52:00;101701.53;;;11.08;87.97
44992;BME280;56865;51.618;7.406;2023-03-01T17:54:30;101704.28;;;10.93;87.00
44992;BME280;56865;51.618;7.406;2023-03-01T17:57:00;101704.22;;;10.71;88.47
44992;BME280;56865;51.618;7.406;2023-03-01T17:59:34;101703.72;;;11.41;86.75
44992;BME280;56865;51.618;7.406;2023-03-01T18:02:08;101700.09;;;11.99;86.36
44992;BME280;56865;51.618;7.406;2023-03-01T18:04:39;101708.06;;;12.07;84.57
44992;BME280;56865;51.618;7.406;2023-03-01T18:07:10;101708.25;;;11.90;84.01
44992;BME280;56865;51.618;7.406;2023-03-01T18:09:41;101711.06;;;11.75;83.86
44992;BME280;56865;51.618;7.406;2023-03-01T18:12:13;101709.88;;;10.84;86.95
44992;BME280;56865;51.618;7.406;2023-03-01T18:14:47;101711.50;;;10.82;86.54
44992;BME280;56865;51.618;7.406;2023-03-01T18:17:19;101700.06;;;10.54;83.92
44992;BME280;56865;51.618;7.406;2023-03-01T18:19:49;101708.47;;;10.33;85.36
44992;BME280;56865;51.618;7.406;2023-03-01T18:22:21;101707.44;;;11.06;86.27
44992;BME280;56865;51.618;7.406;2023-03-01T18:24:57;101711.91;;;10.52;88.75
44992;BME280;56865;51.618;7.406;2023-03-01T18:27:29;101703.91;;;10.26;86.61
44992;BME280;56865;51.618;7.406;2023-03-01T18:30:05;101712.09;;;10.19;86.95
44992;BME280;56865;51.618;7.406;2023-03-01T18:32:35;101711.22;;;10.00;87.15
44992;BME280;56865;51.618;7.406;2023-03-01T18:35:06;101701.19;;;10.03;87.93
44992;BME280;56865;51.618;7.406;2023-03-01T18:37:36;101703.44;;;9.97;86.64
44992;BME280;56865;51.618;7.406;2023-03-01T18:40:07;101702.84;;;9.85;84.91
44992;BME280;56865;51.618;7.406;2023-03-01T18:42:38;101696.78;;;9.81;90.47
44992;BME280;56865;51.618;7.406;2023-03-01T18:45:11;101691.38;;;9.75;86.72
44992;BME280;56865;51.618;7.406;2023-03-01T18:47:42;101687.56;;;9.85;88.87
44992;BME280;56865;51.618;7.406;2023-03-01T18:50:15;101684.34;;;9.87;90.79
44992;BME280;56865;51.618;7.406;2023-03-01T18:52:45;101686.34;;;10.13;87.92
44992;BME280;56865;51.618;7.406;2023-03-01T18:55:15;101684.72;;;10.15;88.97
44992;BME280;56865;51.618;7.406;2023-03-01T18:57:48;101683.22;;;10.00;86.18
44992;BME280;56865;51.618;7.406;2023-03-01T19:00:23;101671.91;;;9.57;89.00
44992;BME280;56865;51.618;7.406;2023-03-01T19:02:55;101672.69;;;9.74;90.96
44992;BME280;56865;51.618;7.406;2023-03-01T19:05:27;101674.63;;;9.26;88.67
44992;BME280;56865;51.618;7.406;2023-03-01T19:08:05;101669.03;;;9.69;91.06
44992;BME280;56865;51.618;7.406;2023-03-01T19:10:39;101661.66;;;9.56;91.73
44992;BME280;56865;51.618;7.406;2023-03-01T19:13:11;101676.91;;;9.74;90.36
44992;BME280;56865;51.618;7.406;2023-03-01T19:15:44;101667.59;;;9.74;90.14
44992;BME280;56865;51.618;7.406;2023-03-01T19:18:17;101672.97;;;9.63;91.56
44992;BME280;56865;51.618;7.406;2023-03-01T19:20:58;101662.63;;;9.59;91.49
44992;BME280;56865;51.618;7.406;2023-03-01T19:23:30;101670.47;;;9.82;90.21
44992;BME280;56865;51.618;7.406;2023-03-01T19:26:01;101667.44;;;9.71;87.61
44992;BME280;56865;51.618;7.406;2023-03-01T19:28:32;101670.06;;;9.73;89.50
44992;BME280;56865;51.618;7.406;2023-03-01T19:31:09;101674.06;;;9.50;92.93
44992;BME280;56865;51.618;7.406;2023-03-01T19:33:44;101677.72;;;9.55;91.74
44992;BME280;56865;51.618;7.406;2023-03-01T19:36:15;101664.38;;;9.60;91.83
44992;BME280;56865;51.618;7.406;2023-03-01T19:38:47;101668.25;;;9.70;94.31
44992;BME280;56865;51.618;7.406;2023-03-01T19:41:17;101682.69;;;9.53;89.83
44992;BME280;56865;51.618;7.406;2023-03-01T19:43:48;101673.28;;;9.69;91.40
44992;BME280;56865;51.618;7.406;2023-03-01T19:46:22;101675.66;;;9.84;90.93
44992;BME280;56865;51.618;7.406;2023-03-01T19:48:55;101674.13;;;9.69;89.94
44992;BME280;56865;51.618;7.406;2023-03-01T19:51:29;101672.03;;;9.79;92.74
44992;BME280;56865;51.618;7.406;2023-03-01T19:53:59;101677.38;;;9.85;92.77
44992;BME280;56865;51.618;7.406;2023-03-01T19:56:29;101673.34;;;9.70;92.53
44992;BME280;56865;51.618;7.406;2023-03-01T19:58:59;101665.56;;;9.67;92.08
44992;BME280;56865;51.618;7.406;2023-03-01T20:01:33;101671.53;;;9.68;91.56
44992;BME280;56865;51.618;7.406;2023-03-01T20:04:07;101675.81;;;10.24;88.56
44992;BME280;56865;51.618;7.406;2023-03-01T20:06:38;101677.75;;;9.74;90.47
44992;BME280;56865;51.618;7.406;2023-03-01T20:09:10;101676.44;;;9.65;91.06
44992;BME280;56865;51.618;7.406;2023-03-01T20:11:47;101682.44;;;9.65;90.23
44992;BME280;56865;51.618;7.406;2023-03-01T20:14:17;101682.44;;;9.65;92.43
44992;BME280;56865;51.618;7.406;2023-03-01T20:16:52;101674.50;;;9.41;90.80
44992;BME280;56865;51.618;7.406;2023-03-01T20:19:22;101672.38;;;9.32;92.58
44992;BME280;56865;51.618;7.406;2023-03-01T20:21:52;101674.81;;;9.31;94.49
44992;BME280;56865;51.618;7.406;2023-03-01T20:24:22;101675.56;;;9.28;91.92
44992;BME280;56865;51.618;7.406;2023-03-01T20:27:00;101673.78;;;9.43;88.72
44992;BME280;56865;51.618;7.406;2023-03-01T20:29:31;101676.66;;;9.33;93.84
44992;BME280;56865;51.618;7.406;2023-03-01T20:32:04;101679.34;;;9.18;93.75
44992;BME280;56865;51.618;7.406;2023-03-01T20:34:37;101680.88;;;9.33;92.19
44992;BME280;56865;51.618;7.406;2023-03-01T20:37:07;101683.84;;;9.24;91.63
44992;BME280;56865;51.618;7.406;2023-03-01T20:39:38;101686.56;;;9.45;92.54
44992;BME280;56865;51.618;7.406;2023-03-01T20:42:08;101682.31;;;9.27;92.47
44992;BME280;56865;51.618;7.406;2023-03-01T20:44:38;101684.94;;;9.29;93.41
44992;BME280;56865;51.618;7.406;2023-03-01T20:47:12;101691.81;;;9.14;94.05
44992;BME280;56865;51.618;7.406;2023-03-01T20:49:42;101684.91;;;9.11;93.62